Time;durP1;ratioP1;P1;durP2;ratioP2;P2;SDS_P1;SDS_P2;PMS_P1;PMS_P2;Temp;Humidity;BMP_temperature;BMP_pressure;BME280_temperature;BME280_humidity;BME280_pressure;Samples;Min_cycle;Max_cycle;Signal;HPM_P1;HPM_P2
2022/09/25 00:01:15;;;;;;;5.68;3.10;;;7.90;99.90;;;;;;5024335;28;20405;-84
2022/09/25 00:03:42;;;;;;;4.85;2.63;;;7.90;99.90;;;;;;5027464;28;20429;-84
2022/09/25 00:06:22;;;;;;;4.82;3.10;;;7.90;99.90;;;;;;5024109;28;20482;-83
2022/09/25 00:08:50;;;;;;;4.17;2.80;;;7.90;99.90;;;;;;5006111;28;20434;-83
2022/09/25 00:11:20;;;;;;;5.80;2.90;;;7.90;99.90;;;;;;5023370;28;20412;-83
2022/09/25 00:13:48;;;;;;;4.55;2.70;;;7.90;99.90;;;;;;5025535;28;20539;-83
2022/09/25 00:16:23;;;;;;;5.43;2.53;;;7.90;99.90;;;;;;5028184;28;21048;-84
2022/09/25 00:21:38;;;;;;;4.63;2.92;;;7.90;99.90;;;;;;5027720;28;20448;-83
2022/09/25 00:24:08;;;;;;;4.80;2.70;;;7.90;99.90;;;;;;5025624;28;20401;-84
2022/09/25 00:26:38;;;;;;;4.53;2.67;;;7.90;99.90;;;;;;5026760;28;20799;-83
2022/09/25 00:29:07;;;;;;;4.47;2.70;;;7.90;99.90;;;;;;5026826;28;20945;-83
2022/09/25 00:31:35;;;;;;;3.60;2.60;;;7.90;99.90;;;;;;5027893;28;20940;-84
2022/09/25 00:34:04;;;;;;;4.72;2.75;;;7.90;99.90;;;;;;5031930;28;20398;-84
2022/09/25 00:36:33;;;;;;;4.33;2.77;;;7.90;99.90;;;;;;5029311;28;20417;-83
2022/09/25 00:39:00;;;;;;;4.75;3.13;;;7.90;99.90;;;;;;5025084;28;20397;-81
2022/09/25 00:41:32;;;;;;;4.63;2.87;;;7.90;99.90;;;;;;5030147;28;20407;-84
2022/09/25 00:44:02;;;;;;;5.13;2.60;;;7.90;99.90;;;;;;5029809;28;20479;-83
2022/09/25 00:46:43;;;;;;;5.93;2.92;;;7.90;99.90;;;;;;5030284;28;20413;-82
2022/09/25 00:49:16;;;;;;;4.50;2.70;;;7.90;99.90;;;;;;5029319;28;20424;-83
2022/09/25 00:51:49;;;;;;;5.13;2.60;;;7.90;99.90;;;;;;5030377;28;20396;-84
2022/09/25 00:54:38;;;;;;;4.78;2.60;;;7.90;99.90;;;;;;5019918;28;20895;-82
2022/09/25 00:57:09;;;;;;;3.67;2.45;;;7.90;99.90;;;;;;5030042;28;20389;-83
2022/09/25 00:59:43;;;;;;;3.92;2.25;;;7.80;99.90;;;;;;5030505;28;21185;-84
2022/09/25 01:02:18;;;;;;;4.53;2.45;;;7.80;99.90;;;;;;5022386;28;20633;-83
2022/09/25 01:04:47;;;;;;;3.72;2.50;;;7.90;99.90;;;;;;5027783;28;20467;-83
2022/09/25 01:07:15;;;;;;;6.32;2.80;;;7.80;99.90;;;;;;5027106;28;20985;-83
2022/09/25 01:09:45;;;;;;;5.28;2.65;;;7.80;99.90;;;;;;5004381;28;20402;-83
2022/09/25 01:12:12;;;;;;;4.97;2.38;;;7.90;99.90;;;;;;5031026;28;20548;-83
2022/09/25 01:14:40;;;;;;;3.97;2.65;;;7.80;99.90;;;;;;5027491;28;20401;-83
2022/09/25 01:17:23;;;;;;;4.57;2.87;;;7.80;99.90;;;;;;5030519;28;20420;-82
2022/09/25 01:20:10;;;;;;;4.22;2.70;;;7.90;99.90;;;;;;5025963;28;20454;-84
2022/09/25 01:23:00;;;;;;;4.82;2.80;;;7.80;99.90;;;;;;5022061;28;20427;-83
2022/09/25 01:25:53;;;;;;;4.67;2.60;;;7.80;99.90;;;;;;5026231;28;20411;-82
2022/09/25 01:28:39;;;;;;;5.55;2.35;;;7.80;99.90;;;;;;5017555;28;20397;-83
2022/09/25 01:31:23;;;;;;;4.32;2.67;;;7.80;99.90;;;;;;5029411;28;20401;-82
2022/09/25 01:33:59;;;;;;;3.03;2.10;;;7.90;99.90;;;;;;5020515;28;20430;-81
2022/09/25 01:36:48;;;;;;;5.38;2.63;;;7.80;99.90;;;;;;5027955;28;20486;-82
2022/09/25 01:39:20;;;;;;;4.13;2.35;;;7.80;99.90;;;;;;5028174;28;20514;-83
2022/09/25 01:41:59;;;;;;;3.90;2.33;;;7.90;99.90;;;;;;5030131;28;20393;-84
2022/09/25 01:44:36;;;;;;;3.65;2.33;;;7.80;99.90;;;;;;5029716;28;20409;-85
2022/09/25 01:47:17;;;;;;;4.50;2.30;;;7.80;99.90;;;;;;5029688;28;20397;-84
2022/09/25 01:49:49;;;;;;;3.42;2.42;;;7.90;99.90;;;;;;5022758;28;20878;-83
2022/09/25 01:52:21;;;;;;;4.38;2.42;;;7.90;99.90;;;;;;5030308;28;20410;-83
2022/09/25 01:54:53;;;;;;;5.20;2.42;;;7.90;99.90;;;;;;5015950;28;20410;-84
2022/09/25 01:58:10;;;;;;;4.53;2.47;;;7.90;99.90;;;;;;5009861;28;20397;-82
2022/09/25 02:00:42;;;;;;;4.63;2.70;;;7.90;99.90;;;;;;5021145;28;20437;-82
2022/09/25 02:03:17;;;;;;;3.35;2.30;;;7.90;99.90;;;;;;5029709;28;20393;-84
2022/09/25 02:06:01;;;;;;;4.07;2.70;;;7.90;99.90;;;;;;5029498;28;20445;-84
2022/09/25 02:08:42;;;;;;;3.95;2.33;;;7.80;99.90;;;;;;5028682;28;20402;-83
2022/09/25 02:11:11;;;;;;;4.68;2.20;;;7.80;99.90;;;;;;5030841;28;20476;-84
2022/09/25 02:13:57;;;;;;;2.97;2.17;;;7.80;99.90;;;;;;5029507;28;20404;-83
2022/09/25 02:16:35;;;;;;;4.38;2.30;;;7.80;99.90;;;;;;5029782;28;20394;-84
2022/09/25 02:22:07;;;;;;;4.00;2.45;;;7.80;99.90;;;;;;5029480;28;20398;-83
2022/09/25 02:24:53;;;;;;;3.30;2.30;;;7.80;99.90;;;;;;5027593;28;20508;-83
2022/09/25 02:27:26;;;;;;;2.97;2.08;;;7.80;99.90;;;;;;5021266;28;20409;-83
2022/09/25 02:29:55;;;;;;;4.53;2.20;;;7.80;99.90;;;;;;5026834;28;20398;-83
2022/09/25 02:32:29;;;;;;;2.97;2.30;;;7.80;99.90;;;;;;5026488;28;20432;-84
2022/09/25 02:34:58;;;;;;;3.45;1.95;;;7.80;99.90;;;;;;5026480;28;20412;-83
2022/09/25 02:37:26;;;;;;;4.35;2.10;;;7.80;99.90;;;;;;5028718;28;20413;-83
2022/09/25 02:39:57;;;;;;;6.20;2.13;;;7.80;99.90;;;;;;5027269;28;20452;-82
2022/09/25 02:42:38;;;;;;;4.50;2.35;;;7.80;99.90;;;;;;5026650;28;20409;-83
2022/09/25 02:45:27;;;;;;;3.15;2.10;;;7.80;99.90;;;;;;5027390;28;20524;-81
2022/09/25 02:48:21;;;;;;;4.97;2.30;;;7.80;99.90;;;;;;5026703;28;20814;-83
2022/09/25 02:51:07;;;;;;;4.28;2.28;;;7.80;99.90;;;;;;5027754;28;20440;-83
2022/09/25 02:53:44;;;;;;;2.95;2.00;;;7.80;99.90;;;;;;5014697;28;20403;-83
2022/09/25 02:56:25;;;;;;;2.55;2.00;;;7.80;99.90;;;;;;5009243;28;20399;-85
2022/09/25 02:59:00;;;;;;;4.57;2.10;;;7.80;99.90;;;;;;5020988;28;20411;-82
2022/09/25 03:01:32;;;;;;;4.05;1.90;;;7.80;99.90;;;;;;5027663;28;20393;-84
2022/09/25 03:04:02;;;;;;;3.28;2.17;;;7.80;99.90;;;;;;5022183;28;20417;-83
2022/09/25 03:06:30;;;;;;;4.07;2.10;;;7.80;99.90;;;;;;5018784;28;20413;-83
2022/09/25 03:09:01;;;;;;;2.58;2.05;;;7.80;99.90;;;;;;5015841;28;20565;-82
2022/09/25 03:11:28;;;;;;;7.43;2.25;;;7.80;99.90;;;;;;5020936;28;20438;-82
2022/09/25 03:14:01;;;;;;;4.55;1.92;;;7.80;99.90;;;;;;5021434;28;20415;-82
2022/09/25 03:16:46;;;;;;;3.88;1.90;;;7.80;99.90;;;;;;5005510;28;20403;-81
2022/09/25 03:19:15;;;;;;;4.05;2.25;;;7.80;99.90;;;;;;5020979;28;20470;-84
2022/09/25 03:21:42;;;;;;;5.17;3.07;;;7.80;99.90;;;;;;5025218;28;20390;-83
2022/09/25 03:24:10;;;;;;;4.65;2.47;;;7.80;99.90;;;;;;5027195;28;20393;-83
2022/09/25 03:26:39;;;;;;;5.00;2.00;;;7.80;99.90;;;;;;5026645;28;20896;-83
2022/09/25 03:29:08;;;;;;;4.85;2.33;;;7.80;99.90;;;;;;5022831;28;20403;-82
2022/09/25 03:31:36;;;;;;;4.77;2.13;;;7.80;99.90;;;;;;5019775;28;20507;-83
2022/09/25 03:34:03;;;;;;;4.30;2.42;;;7.80;99.90;;;;;;5020566;28;20881;-84
2022/09/25 03:36:32;;;;;;;3.78;2.10;;;7.80;99.90;;;;;;5015383;28;20489;-83
2022/09/25 03:39:00;;;;;;;2.63;2.08;;;7.80;99.90;;;;;;5011568;28;20956;-82
2022/09/25 03:41:33;;;;;;;4.00;1.65;;;7.80;99.90;;;;;;5016753;28;20417;-83
2022/09/25 03:44:01;;;;;;;4.03;2.00;;;7.70;99.90;;;;;;5020281;28;20411;-83
2022/09/25 03:46:31;;;;;;;2.65;1.88;;;7.80;99.90;;;;;;5016810;28;20836;-84
2022/09/25 03:49:00;;;;;;;4.30;2.03;;;7.80;99.90;;;;;;5013605;28;20402;-84
2022/09/25 03:51:29;;;;;;;3.55;1.73;;;7.80;99.90;;;;;;5017349;28;20926;-83
2022/09/25 03:53:58;;;;;;;4.63;1.85;;;7.80;99.90;;;;;;5017002;28;20391;-83
2022/09/25 03:56:28;;;;;;;3.47;1.88;;;7.80;99.90;;;;;;5015223;28;20406;-84
2022/09/25 03:58:57;;;;;;;3.35;1.70;;;7.80;99.90;;;;;;5021666;28;20514;-82
2022/09/25 04:01:26;;;;;;;4.38;1.80;;;7.90;99.90;;;;;;5025685;28;20397;-82
2022/09/25 04:03:54;;;;;;;2.10;1.50;;;7.90;99.90;;;;;;5027172;28;20496;-83
2022/09/25 04:06:24;;;;;;;4.47;1.58;;;7.80;99.90;;;;;;5008683;28;20407;-85
2022/09/25 04:08:53;;;;;;;4.57;1.65;;;7.80;99.90;;;;;;5011959;28;20474;-82
2022/09/25 04:11:23;;;;;;;3.63;1.80;;;7.80;99.90;;;;;;5020720;28;20488;-83
2022/09/25 04:13:51;;;;;;;4.00;1.67;;;7.80;99.90;;;;;;5009740;28;20885;-85
2022/09/25 04:16:22;;;;;;;3.08;1.60;;;7.80;99.90;;;;;;5016933;28;20782;-83
2022/09/25 04:18:50;;;;;;;3.17;1.30;;;7.80;99.90;;;;;;5025113;28;20422;-84
2022/09/25 04:21:17;;;;;;;2.83;1.73;;;7.80;99.90;;;;;;5011436;28;20601;-83
2022/09/25 04:26:32;;;;;;;5.13;1.80;;;7.70;99.90;;;;;;5011382;28;20402;-84
2022/09/25 04:29:00;;;;;;;2.95;1.70;;;7.80;99.90;;;;;;5009686;28;20581;-82
2022/09/25 04:31:30;;;;;;;3.60;1.70;;;7.80;99.90;;;;;;5014435;28;20439;-83
2022/09/25 04:33:58;;;;;;;2.80;1.60;;;7.80;99.90;;;;;;4993731;28;20390;-85
2022/09/25 04:36:26;;;;;;;2.78;1.70;;;7.70;99.90;;;;;;5019212;28;20951;-84
2022/09/25 04:38:54;;;;;;;2.22;1.70;;;7.70;99.90;;;;;;5009980;28;20399;-84
2022/09/25 04:41:21;;;;;;;3.60;1.70;;;7.80;99.90;;;;;;5010876;28;20514;-83
2022/09/25 04:43:49;;;;;;;2.53;1.75;;;7.80;99.90;;;;;;5012997;28;20395;-83
2022/09/25 04:46:17;;;;;;;2.85;1.70;;;7.80;99.90;;;;;;5012077;28;20473;-84
2022/09/25 04:48:48;;;;;;;2.25;1.70;;;7.80;99.90;;;;;;5011051;28;20414;-84
2022/09/25 04:51:16;;;;;;;3.90;1.80;;;7.80;99.90;;;;;;5012250;28;20952;-83
2022/09/25 04:53:44;;;;;;;3.38;1.80;;;7.80;99.90;;;;;;5014671;28;20488;-84
2022/09/25 04:56:12;;;;;;;2.65;1.58;;;7.80;99.90;;;;;;5032281;28;20400;-84
2022/09/25 04:58:48;;;;;;;3.35;1.60;;;7.80;99.90;;;;;;5030346;28;20764;-84
2022/09/25 05:01:18;;;;;;;3.42;1.70;;;7.80;99.90;;;;;;5020933;28;20405;-83
2022/09/25 05:03:52;;;;;;;2.37;1.50;;;7.80;99.90;;;;;;5012042;28;20452;-83
2022/09/25 05:06:33;;;;;;;4.18;1.50;;;7.80;99.90;;;;;;5010556;28;20438;-84
2022/09/25 05:09:02;;;;;;;4.30;1.90;;;7.70;99.90;;;;;;5010697;28;20391;-82
2022/09/25 05:11:30;;;;;;;1.87;1.20;;;7.70;99.90;;;;;;5018405;28;20506;-84
2022/09/25 05:13:57;;;;;;;2.42;1.55;;;7.70;99.90;;;;;;5029897;28;20400;-83
2022/09/25 05:16:27;;;;;;;3.83;1.60;;;7.60;99.90;;;;;;5030246;28;20408;-83
2022/09/25 05:18:55;;;;;;;6.53;1.73;;;7.60;99.90;;;;;;5031858;28;20408;-84
2022/09/25 05:21:23;;;;;;;2.40;1.65;;;7.60;99.90;;;;;;5031673;28;20552;-83
2022/09/25 05:23:51;;;;;;;2.65;1.60;;;7.60;99.90;;;;;;5031535;28;20961;-84
2022/09/25 05:26:18;;;;;;;3.35;1.65;;;7.60;99.90;;;;;;5030325;28;20416;-83
2022/09/25 05:28:49;;;;;;;3.97;1.75;;;7.60;99.90;;;;;;5030126;28;20400;-84
2022/09/25 05:31:17;;;;;;;4.03;1.70;;;7.70;99.90;;;;;;5026907;28;20489;-83
2022/09/25 05:33:44;;;;;;;4.82;1.90;;;7.70;99.90;;;;;;5028807;28;20397;-84
2022/09/25 05:36:12;;;;;;;3.20;1.50;;;7.70;99.90;;;;;;5029125;28;20421;-84
2022/09/25 05:38:40;;;;;;;3.22;1.52;;;7.60;99.90;;;;;;5029670;28;20389;-83
2022/09/25 05:41:09;;;;;;;2.55;1.90;;;7.70;99.90;;;;;;5029448;28;20390;-84
2022/09/25 05:43:42;;;;;;;2.92;1.70;;;7.70;99.90;;;;;;5031555;28;20745;-85
2022/09/25 05:46:10;;;;;;;3.08;1.60;;;7.70;99.90;;;;;;5029417;28;20999;-83
2022/09/25 05:48:40;;;;;;;2.28;1.52;;;7.70;99.90;;;;;;5029816;28;20393;-83
2022/09/25 05:51:08;;;;;;;2.72;1.80;;;7.70;99.90;;;;;;5031167;28;20467;-82
2022/09/25 05:53:37;;;;;;;2.92;1.45;;;7.70;99.90;;;;;;5029207;28;20443;-84
2022/09/25 05:56:05;;;;;;;3.45;1.63;;;7.70;99.90;;;;;;5019747;28;20444;-85
2022/09/25 05:58:34;;;;;;;2.83;1.60;;;7.70;99.90;;;;;;5030611;28;20909;-84
2022/09/25 06:01:04;;;;;;;3.40;1.52;;;7.70;99.90;;;;;;5029477;28;20455;-82
2022/09/25 06:03:32;;;;;;;2.55;1.35;;;7.80;99.90;;;;;;5030484;28;20468;-83
2022/09/25 06:06:01;;;;;;;3.00;1.50;;;7.80;99.90;;;;;;5026370;28;20926;-84
2022/09/25 06:08:34;;;;;;;2.35;1.33;;;7.80;99.90;;;;;;5029982;28;20393;-83
2022/09/25 06:11:03;;;;;;;4.03;1.45;;;7.90;99.90;;;;;;5030623;28;20435;-82
2022/09/25 06:13:33;;;;;;;2.85;1.40;;;7.80;99.90;;;;;;5026460;28;20459;-84
2022/09/25 06:16:01;;;;;;;3.00;1.40;;;7.80;99.90;;;;;;5028529;28;20759;-83
2022/09/25 06:18:29;;;;;;;1.92;1.20;;;7.80;99.90;;;;;;5027301;28;20422;-83
2022/09/25 06:21:08;;;;;;;1.88;1.38;;;7.90;99.90;;;;;;5025378;28;20501;-84
2022/09/25 06:23:56;;;;;;;2.50;1.25;;;7.80;99.90;;;;;;5008683;28;20409;-83
2022/09/25 06:26:24;;;;;;;2.78;1.30;;;7.90;99.90;;;;;;5043200;28;20405;-82
2022/09/25 06:28:53;;;;;;;1.63;1.20;;;8.00;99.90;;;;;;5025123;28;20482;-84
2022/09/25 06:31:33;;;;;;;1.65;1.20;;;8.00;99.90;;;;;;5026435;28;20425;-83
2022/09/25 06:34:01;;;;;;;2.30;1.30;;;8.00;99.90;;;;;;5023892;28;20766;-84
2022/09/25 06:36:30;;;;;;;1.25;1.10;;;8.00;99.90;;;;;;5027431;28;20579;-83
2022/09/25 06:38:58;;;;;;;2.20;1.37;;;8.10;99.90;;;;;;5027711;28;20732;-83
2022/09/25 06:41:26;;;;;;;12.05;3.85;;;8.10;99.90;;;;;;5029776;28;20401;-84
2022/09/25 06:43:54;;;;;;;1.52;1.08;;;8.20;99.90;;;;;;5028305;28;20903;-83
2022/09/25 06:46:23;;;;;;;2.10;1.40;;;8.20;99.90;;;;;;5029376;28;20409;-84
2022/09/25 06:48:53;;;;;;;1.75;1.27;;;8.20;99.90;;;;;;5028417;28;20424;-82
2022/09/25 06:51:30;;;;;;;1.75;1.30;;;8.20;99.90;;;;;;5029651;28;20420;-83
2022/09/25 06:53:58;;;;;;;3.45;1.30;;;8.20;99.90;;;;;;5029964;28;20876;-83
2022/09/25 06:56:30;;;;;;;2.03;1.35;;;8.30;99.90;;;;;;5029067;28;20402;-82
2022/09/25 06:59:08;;;;;;;1.90;1.20;;;8.30;99.90;;;;;;5020058;28;20413;-84
2022/09/25 07:01:37;;;;;;;3.40;1.50;;;8.40;99.90;;;;;;5022838;28;20779;-84
2022/09/25 07:04:04;;;;;;;3.38;1.50;;;8.40;99.90;;;;;;4999647;28;20398;-83
2022/09/25 07:06:33;;;;;;;2.30;1.20;;;8.40;99.90;;;;;;5018722;28;20416;-83
2022/09/25 07:09:02;;;;;;;1.88;1.30;;;8.40;99.90;;;;;;5003433;28;20406;-82
2022/09/25 07:11:30;;;;;;;3.22;1.35;;;8.50;99.90;;;;;;5010020;28;20382;-83
2022/09/25 07:13:57;;;;;;;1.73;1.27;;;8.50;99.90;;;;;;5009111;28;20792;-83
2022/09/25 07:16:28;;;;;;;2.33;1.50;;;8.50;99.90;;;;;;5008039;28;20402;-83
2022/09/25 07:19:02;;;;;;;2.63;1.20;;;8.50;99.90;;;;;;5008956;28;20411;-83
2022/09/25 07:21:30;;;;;;;4.20;1.60;;;8.60;99.90;;;;;;5023883;28;20478;-85
2022/09/25 07:23:58;;;;;;;24.00;15.95;;;8.60;99.90;;;;;;5016841;28;20393;-85
2022/09/25 07:26:29;;;;;;;4.72;1.98;;;8.60;99.90;;;;;;5021281;28;20411;-84
2022/09/25 07:29:05;;;;;;;4.30;2.47;;;8.60;99.90;;;;;;5020226;28;20500;-85
2022/09/25 07:31:36;;;;;;;6.53;4.22;;;8.60;99.90;;;;;;5017317;28;20395;-84
2022/09/25 07:34:11;;;;;;;4.65;2.63;;;8.70;99.90;;;;;;5014642;28;20391;-84
2022/09/25 07:36:43;;;;;;;4.90;2.53;;;8.70;99.90;;;;;;5007939;28;20413;-83
2022/09/25 07:39:11;;;;;;;3.47;1.92;;;8.80;99.90;;;;;;5009203;28;20402;-84
2022/09/25 07:41:46;;;;;;;4.47;2.40;;;8.80;99.90;;;;;;5016668;28;20432;-84
2022/09/25 07:44:14;;;;;;;3.20;1.92;;;8.80;99.90;;;;;;5027617;28;20397;-85
2022/09/25 07:46:55;;;;;;;3.78;2.03;;;8.90;99.90;;;;;;5027547;28;20812;-85
2022/09/25 07:49:23;;;;;;;3.72;1.80;;;8.90;99.90;;;;;;5029280;28;20715;-84
2022/09/25 07:51:51;;;;;;;6.22;3.58;;;9.00;99.90;;;;;;5022432;28;20410;-85
2022/09/25 07:54:20;;;;;;;2.97;1.70;;;9.00;99.90;;;;;;5016022;28;20398;-83
2022/09/25 07:56:51;;;;;;;2.40;1.80;;;9.00;99.90;;;;;;5030113;28;20399;-81
2022/09/25 07:59:19;;;;;;;3.15;1.90;;;9.00;99.90;;;;;;5017687;28;20394;-84
2022/09/25 08:01:48;;;;;;;3.13;1.92;;;9.10;99.90;;;;;;5020954;28;20498;-83
2022/09/25 08:04:20;;;;;;;3.15;1.63;;;9.20;99.90;;;;;;5018870;28;20809;-82
2022/09/25 08:06:48;;;;;;;2.93;1.80;;;9.20;99.90;;;;;;5017299;28;20403;-84
2022/09/25 08:09:16;;;;;;;5.93;2.15;;;9.20;99.90;;;;;;5017848;28;20393;-84
2022/09/25 08:11:45;;;;;;;3.10;1.50;;;9.20;99.90;;;;;;5015796;28;20949;-84
2022/09/25 08:14:15;;;;;;;2.10;1.60;;;9.20;99.90;;;;;;5018748;28;20395;-83
2022/09/25 08:16:43;;;;;;;3.00;1.55;;;9.30;99.90;;;;;;5017304;28;20395;-85
2022/09/25 08:19:11;;;;;;;3.30;1.67;;;9.40;99.90;;;;;;5017299;28;20487;-83
2022/09/25 08:21:38;;;;;;;2.42;1.67;;;9.40;99.90;;;;;;5019032;28;20472;-83
2022/09/25 08:24:07;;;;;;;2.22;1.25;;;9.40;99.90;;;;;;5017447;28;20493;-84
2022/09/25 08:26:37;;;;;;;2.43;1.60;;;9.40;99.90;;;;;;5016486;28;20410;-84
2022/09/25 08:29:05;;;;;;;2.40;1.50;;;9.50;99.90;;;;;;5017974;28;20396;-83
2022/09/25 08:31:35;;;;;;;2.70;1.50;;;9.50;99.90;;;;;;5018264;28;20395;-84
2022/09/25 08:34:03;;;;;;;4.07;1.40;;;9.50;99.90;;;;;;5018111;28;20401;-84
2022/09/25 08:36:51;;;;;;;3.10;1.50;;;9.60;99.90;;;;;;5017301;28;20409;-84
2022/09/25 08:39:20;;;;;;;3.08;1.48;;;9.70;99.90;;;;;;5020294;28;20883;-84
2022/09/25 08:42:19;;;;;;;3.60;1.50;;;9.80;99.90;;;;;;5021913;28;20486;-84
2022/09/25 08:49:00;;;;;;;2.17;1.50;;;9.80;99.90;;;;;;5016627;28;20466;-83
2022/09/25 08:50:40;;;;;;;2.58;1.45;;;9.80;99.90;;;;;;5020009;28;20399;-81
2022/09/25 08:53:23;;;;;;;3.60;1.30;;;9.80;99.90;;;;;;5021893;28;20417;-83
2022/09/25 08:58:49;;;;;;;1.50;1.17;;;9.80;99.90;;;;;;5021025;28;20942;-82
2022/09/25 09:01:22;;;;;;;1.80;1.23;;;9.80;99.90;;;;;;5024183;28;20396;-82
2022/09/25 09:04:13;;;;;;;3.40;1.50;;;9.90;99.90;;;;;;5023969;28;20401;-84
2022/09/25 09:06:45;;;;;;;2.45;1.23;;;9.80;99.90;;;;;;5026699;28;20503;-82
2022/09/25 09:09:39;;;;;;;2.38;1.50;;;9.70;99.90;;;;;;5023338;28;20390;-84
2022/09/25 09:12:28;;;;;;;3.58;1.67;;;9.70;99.90;;;;;;5020699;28;20873;-82
2022/09/25 09:15:22;;;;;;;11.17;5.10;;;9.70;99.90;;;;;;5021145;28;20408;-85
2022/09/25 09:17:54;;;;;;;59.13;46.03;;;9.70;99.90;;;;;;5021012;28;20651;-85
2022/09/25 09:20:44;;;;;;;8.73;4.70;;;9.80;99.90;;;;;;5022583;28;20790;-84
2022/09/25 09:23:19;;;;;;;2.95;1.85;;;9.80;99.90;;;;;;5030819;28;20405;-82
2022/09/25 09:26:00;;;;;;;2.90;1.80;;;9.90;99.90;;;;;;5016864;28;20675;-83
2022/09/25 09:28:51;;;;;;;1.85;1.20;;;9.90;99.90;;;;;;5019006;28;21007;-83
2022/09/25 09:31:36;;;;;;;3.60;1.50;;;10.00;99.90;;;;;;5028647;28;20699;-83
2022/09/25 09:34:33;;;;;;;3.78;1.75;;;10.10;99.90;;;;;;5029927;28;20392;-80
2022/09/25 09:37:30;;;;;;;13.80;6.27;;;10.20;99.90;;;;;;5017379;28;20395;-82
2022/09/25 09:40:23;;;;;;;7.03;4.18;;;10.10;99.90;;;;;;5024529;28;20397;-86
2022/09/25 09:43:15;;;;;;;3.65;1.48;;;10.20;99.90;;;;;;5029447;28;20481;-83
2022/09/25 09:45:55;;;;;;;3.55;2.00;;;10.40;99.90;;;;;;5011750;28;20920;-86
2022/09/25 09:48:38;;;;;;;2.50;1.40;;;10.40;99.90;;;;;;5025479;28;20397;-86
2022/09/25 09:51:47;;;;;;;2.33;1.60;;;10.50;99.90;;;;;;5027232;28;20401;-85
2022/09/25 09:54:36;;;;;;;6.25;3.33;;;10.50;99.90;;;;;;5014174;28;20397;-85
2022/09/25 09:57:33;;;;;;;3.95;2.20;;;10.50;99.90;;;;;;5030897;28;20397;-85
2022/09/25 10:00:16;;;;;;;2.08;1.30;;;10.60;99.90;;;;;;5026155;28;20427;-86
2022/09/25 10:02:53;;;;;;;2.10;1.40;;;10.70;99.90;;;;;;5001139;28;20414;-84
2022/09/25 10:05:45;;;;;;;1.77;1.30;;;10.70;99.90;;;;;;5020775;28;20427;-85
2022/09/25 10:08:18;;;;;;;3.30;1.50;;;10.70;99.90;;;;;;5021096;28;20459;-85
2022/09/25 10:10:57;;;;;;;3.22;1.30;;;10.70;99.90;;;;;;5019530;28;20410;-85
2022/09/25 10:13:36;;;;;;;2.95;1.45;;;10.60;99.90;;;;;;5022511;28;20478;-84
2022/09/25 10:16:10;;;;;;;1.80;1.20;;;10.50;99.90;;;;;;5021355;28;20405;-86
2022/09/25 10:18:56;;;;;;;6.10;3.08;;;10.40;99.90;;;;;;5018585;28;20419;-86
2022/09/25 10:21:48;;;;;;;3.03;1.40;;;10.40;99.90;;;;;;5014923;28;20402;-87
2022/09/25 10:24:44;;;;;;;2.90;1.42;;;10.40;99.90;;;;;;5016831;28;20401;-86
2022/09/25 10:27:27;;;;;;;2.00;1.42;;;10.60;99.90;;;;;;5019400;28;20435;-83
2022/09/25 10:30:03;;;;;;;1.98;1.40;;;10.70;99.90;;;;;;5023225;28;20444;-84
2022/09/25 10:32:34;;;;;;;1.70;1.30;;;10.90;99.90;;;;;;5022105;28;20496;-85
2022/09/25 10:35:03;;;;;;;2.70;1.47;;;11.00;99.90;;;;;;5022809;28;20839;-84
2022/09/25 10:37:35;;;;;;;2.65;1.40;;;11.00;99.90;;;;;;5023891;28;20409;-86
2022/09/25 10:40:05;;;;;;;3.17;1.50;;;11.00;99.90;;;;;;5026005;28;20412;-84
2022/09/25 10:42:40;;;;;;;3.28;1.52;;;11.00;99.90;;;;;;5020944;28;20437;-82
2022/09/25 10:45:42;;;;;;;2.67;1.48;;;10.90;99.90;;;;;;5025121;28;20405;-85
2022/09/25 10:51:26;;;;;;;5.97;1.60;;;10.90;99.90;;;;;;4992757;28;20416;-86
2022/09/25 10:54:10;;;;;;;3.72;1.98;;;10.80;99.90;;;;;;5026785;28;20416;-85
2022/09/25 10:56:39;;;;;;;1.92;1.50;;;10.80;99.90;;;;;;5031700;28;20393;-85
2022/09/25 10:59:19;;;;;;;2.65;1.67;;;10.70;99.90;;;;;;5025127;28;21130;-83
2022/09/25 11:01:50;;;;;;;2.00;1.50;;;10.80;99.90;;;;;;5022762;28;20471;-87
2022/09/25 11:04:26;;;;;;;2.40;1.80;;;10.70;99.90;;;;;;5023262;28;20863;-87
2022/09/25 11:07:03;;;;;;;3.47;1.88;;;10.70;99.90;;;;;;5017910;28;20418;-86
2022/09/25 11:09:35;;;;;;;2.78;2.00;;;10.80;99.90;;;;;;5002142;28;20764;-85
2022/09/25 11:12:18;;;;;;;2.60;1.70;;;10.80;99.90;;;;;;5019408;28;20909;-83
2022/09/25 11:15:04;;;;;;;2.47;1.50;;;10.80;99.90;;;;;;5025690;28;20887;-86
2022/09/25 11:17:37;;;;;;;3.93;2.10;;;10.80;99.90;;;;;;5037051;28;20450;-84
2022/09/25 11:20:28;;;;;;;3.53;2.10;;;11.00;99.90;;;;;;5035352;28;20409;-83
2022/09/25 11:23:40;;;;;;;3.03;1.52;;;11.10;99.90;;;;;;5021687;28;20910;-84
2022/09/25 11:26:18;;;;;;;2.63;1.73;;;11.00;99.90;;;;;;5024273;28;20401;-84
2022/09/25 11:29:01;;;;;;;2.92;1.60;;;11.00;99.90;;;;;;5025654;28;20413;-85
2022/09/25 11:31:55;;;;;;;4.28;1.77;;;10.90;99.90;;;;;;5026173;28;20454;-85
2022/09/25 11:34:47;;;;;;;4.00;1.80;;;10.90;99.90;;;;;;5026686;28;20946;-87
2022/09/25 11:38:03;;;;;;;6.00;3.08;;;10.80;99.90;;;;;;5040043;28;20418;-85
2022/09/25 11:43:49;;;;;;;2.53;1.73;;;10.80;99.90;;;;;;5027016;28;20403;-87
2022/09/25 11:46:52;;;;;;;4.57;2.28;;;10.70;99.90;;;;;;5000365;28;20413;-85
2022/09/25 11:49:27;;;;;;;2.28;1.60;;;10.70;99.90;;;;;;5025646;28;20436;-87
2022/09/25 11:52:18;;;;;;;2.20;1.50;;;10.70;99.90;;;;;;5026291;28;20769;-86
2022/09/25 11:55:01;;;;;;;3.80;2.10;;;10.70;99.90;;;;;;5036185;28;20410;-87
2022/09/25 11:57:49;;;;;;;2.25;1.50;;;10.70;99.90;;;;;;5026881;28;20977;-86
2022/09/25 12:00:40;;;;;;;3.20;1.80;;;10.70;99.90;;;;;;5034383;28;20393;-88
2022/09/25 12:03:14;;;;;;;3.08;1.60;;;10.70;99.90;;;;;;5001984;28;20391;-86
2022/09/25 12:05:54;;;;;;;3.05;1.67;;;10.70;99.90;;;;;;5028440;28;20416;-86
2022/09/25 12:08:25;;;;;;;2.90;1.75;;;10.70;99.90;;;;;;5025152;28;20408;-85
2022/09/25 12:11:23;;;;;;;2.05;1.58;;;10.70;99.90;;;;;;5026677;28;20486;-83
2022/09/25 12:14:24;;;;;;;3.78;1.60;;;10.70;99.90;;;;;;5011275;28;20838;-87
2022/09/25 12:17:18;;;;;;;2.85;1.60;;;10.70;99.90;;;;;;5011973;28;20397;-86
2022/09/25 12:20:10;;;;;;;2.60;1.60;;;10.70;99.90;;;;;;5039800;28;21003;-86
2022/09/25 12:22:50;;;;;;;2.88;1.67;;;10.70;99.90;;;;;;5041302;28;20406;-86
2022/09/25 12:26:13;;;;;;;2.90;1.60;;;10.70;99.90;;;;;;5023602;28;20483;-87
2022/09/25 12:28:56;;;;;;;2.83;1.48;;;10.70;99.90;;;;;;5008036;28;20429;-85
2022/09/25 12:31:33;;;;;;;2.70;1.40;;;10.70;99.90;;;;;;5029335;28;20401;-87
2022/09/25 12:34:08;;;;;;;3.90;1.90;;;10.70;99.90;;;;;;5024005;28;20444;-84
2022/09/25 12:36:43;;;;;;;2.72;1.60;;;10.70;99.90;;;;;;5029075;28;20409;-86
2022/09/25 12:39:24;;;;;;;2.65;1.60;;;10.70;99.90;;;;;;5028806;28;20405;-86
2022/09/25 12:42:05;;;;;;;3.13;1.60;;;10.70;99.90;;;;;;5031777;28;20405;-86
2022/09/25 12:44:57;;;;;;;4.03;1.77;;;10.60;99.90;;;;;;5032054;28;20483;-86
2022/09/25 12:47:36;;;;;;;3.13;1.52;;;10.60;99.90;;;;;;5031533;28;20443;-86
2022/09/25 12:50:15;;;;;;;3.25;1.75;;;10.60;99.90;;;;;;5024835;28;20474;-83
2022/09/25 12:52:59;;;;;;;4.40;1.60;;;10.60;99.90;;;;;;5029609;28;20828;-87
2022/09/25 12:55:36;;;;;;;2.83;1.43;;;10.70;99.90;;;;;;5020039;28;20434;-86
2022/09/25 12:58:23;;;;;;;2.53;1.67;;;10.60;99.90;;;;;;5047422;28;20393;-82
2022/09/25 13:01:02;;;;;;;5.28;1.80;;;10.70;99.90;;;;;;5029948;28;20437;-88
2022/09/25 13:04:08;;;;;;;4.13;1.70;;;10.70;99.90;;;;;;5028069;28;20425;-85
2022/09/25 13:06:52;;;;;;;2.60;1.73;;;10.70;99.90;;;;;;5029781;28;20471;-85
2022/09/25 13:09:40;;;;;;;3.08;1.58;;;10.60;99.90;;;;;;5030405;28;20971;-85
2022/09/25 13:12:24;;;;;;;2.40;1.60;;;10.60;99.90;;;;;;5025329;28;20409;-87
2022/09/25 13:14:58;;;;;;;3.00;1.83;;;10.60;99.90;;;;;;5030276;28;20401;-85
2022/09/25 13:17:28;;;;;;;3.10;1.60;;;10.70;99.90;;;;;;5030177;28;20626;-86
2022/09/25 13:20:28;;;;;;;2.83;1.58;;;10.70;99.90;;;;;;5029271;28;20432;-86
2022/09/25 13:23:13;;;;;;;3.53;1.50;;;10.70;99.90;;;;;;5023571;28;20539;-86
2022/09/25 13:25:58;;;;;;;29.27;21.83;;;10.70;99.90;;;;;;5020648;28;20865;-85
2022/09/25 13:28:33;;;;;;;2.38;1.77;;;10.70;99.90;;;;;;5030809;28;20470;-85
2022/09/25 13:31:11;;;;;;;2.40;1.70;;;10.70;99.90;;;;;;5030197;28;20405;-89
2022/09/25 13:33:45;;;;;;;2.70;1.70;;;10.70;99.90;;;;;;5029552;28;20756;-85
2022/09/25 13:36:24;;;;;;;2.80;1.60;;;10.70;99.90;;;;;;5035935;28;20446;-87
2022/09/25 13:41:57;;;;;;;2.85;1.50;;;10.80;99.90;;;;;;5028329;28;20410;-84
2022/09/25 13:44:42;;;;;;;2.33;1.67;;;10.80;99.90;;;;;;5039817;28;20444;-86
2022/09/25 13:47:28;;;;;;;4.90;1.73;;;10.80;99.90;;;;;;5027794;28;20405;-85
2022/09/25 13:50:30;;;;;;;2.28;1.40;;;10.70;99.90;;;;;;5028022;28;20409;-84
2022/09/25 13:53:16;;;;;;;8.30;1.67;;;10.70;99.90;;;;;;5029222;28;20452;-85
2022/09/25 13:55:54;;;;;;;3.77;1.30;;;10.80;99.90;;;;;;5027471;28;20871;-85
2022/09/25 13:58:27;;;;;;;2.38;1.38;;;10.70;99.90;;;;;;5030218;28;20488;-85
2022/09/25 14:00:59;;;;;;;3.00;1.40;;;10.80;99.90;;;;;;5026740;28;20402;-84
2022/09/25 14:03:48;;;;;;;1.98;1.40;;;10.70;99.90;;;;;;5020089;28;20407;-85